Irvington, NY (10533)

3:50 PM EDT on August 30, 2016 (GMT -0400)
Tarryhill | | Change Station

Elev 323 ft 41.05 °N, 73.85 °W | Updated 45 seconds ago

Scattered Clouds
Scattered Clouds
83.7 °F
Feels Like 84 °F
N
1.0
Wind Variable Wind from SSW
Gusts 7.0 mph

Today
High -- | Low -- °F
--% Chance of Precip.
Yesterday
High -- | Low -- °F
Precip. -- in
Pressure 30.07 in
Visibility 10.0 miles
Clouds Scattered Clouds 5000 ft
Heat Index 84 °F
Dew Point 62 °F
Humidity 48%
Rainfall 0.00 in
Snow Depth Not available.
6:20 AM 7:30 PM
Waning Crescent, 3% visible
METAR KHPN 301856Z 00000KT 10SM SCT050 28/14 A3009 RMK AO2 SLP183 T02830144
Pressure 30.07 in
Visibility 10.0 miles
Clouds Scattered Clouds 5000 ft
Heat Index 84 °F
Dew Point 62 °F
Humidity 48%
Rainfall 0.00 in
Snow Depth Not available.
6:20 AM 7:30 PM
Waning Crescent, 3% visible
METAR KHPN 301856Z 00000KT 10SM SCT050 28/14 A3009 RMK AO2 SLP183 T02830144

10-Day Weather Forecast

Almanac

Astronomy

Aug. 30, 2016 Rise Set
Actual Time
Civil Twilight
Nautical Twilight
Astronomical Twilight
Moon
Length of Visible Light
Length of Day
Tomorrow will be .
, % of the Moon is Illuminated

Today's Extremes

State Highs State Lows

Community

WunderPhotos

Upload Photos

1,935,883 photos uploaded!

WunderBlog® & News

Nearby

Air Quality

  Air Quality AQ Index Pollutant
Not available.

Snow Depth

Station Depth Elevation

Earthquake Activity

City Distance Mag. Time & Date
Minimum magnitude displayed is 2.5.

Coastal Water Temperatures

Place Temperature

Stations

Nearby Weather Stations

Station Location Temp. Windchill Dew Point Humidity Wind Precip. Elev Updated Type
                   

Watches & Warnings

There are currently no watches in effect.